KLVM/LVM METAR and TAF weather

Enter ICAO airport designator
Station Type Date Time Source
KLVM METAR 2019/02/23 22:53 UTC NOAA

KLVM 232253Z AUTO 27011KT 10SM FEW028 FEW039 OVC060 M09/M13 A2999 RMK AO2 SLP217 T10891128 TSNO $


Station Type Date Time Source
KLVM Decoded METAR 2019/02/23 22:53 UTC NOAA

LIVINGSTON MISSION FIELD, MT, United States (KLVM) 45-42N 110-26W 1418M
Feb 23, 2019 - 05:53 PM EST / 2019.02.23 2253 UTC
Wind: from the W (270 degrees) at 13 MPH (11 KT):0
Visibility: 10 mile(s):0
Sky conditions: overcast
Temperature: 16.0 F (-8.9 C)
Windchill: 1 F (-17 C):1
Dew Point: 9.0 F (-12.8 C)
Relative Humidity: 73%
Pressure (altimeter): 29.99 in. Hg (1015 hPa)
ob: KLVM 232253Z AUTO 27011KT 10SM FEW028 FEW039 OVC060 M09/M13 A2999 RMK AO2 SLP217 T10891128 TSNO
cycle: 23

Station Type Date Time Source
KLVM TAF 2019/02/23 22:30 UTC NOAA

TAF
AMD KLVM 232228Z 2322/2418 30013G21KT P6SM VCSH BKN050 OVC070
FM240200 26015KT 3SM -SN SCT008 OVC040
FM240600 15012KT 2SM -SN BR BKN012 OVC025


Example: see airport list